createdAt,value
2019-02-27T00:05:15.384Z,53.37
2019-02-27T00:08:04.162Z,53.25
2019-02-27T00:10:33.620Z,53.07
2019-02-27T00:13:24.711Z,53.36
2019-02-27T00:16:12.926Z,53.21
2019-02-27T00:19:01.695Z,53.45
2019-02-27T00:21:50.554Z,53.70
2019-02-27T00:24:39.350Z,53.73
2019-02-27T00:27:28.139Z,53.73
2019-02-27T00:30:16.907Z,53.82
2019-02-27T00:33:05.690Z,53.89
2019-02-27T00:35:54.468Z,53.85
2019-02-27T00:38:43.251Z,53.84
2019-02-27T00:41:32.056Z,54.02
2019-02-27T00:44:20.832Z,53.78
2019-02-27T00:47:09.624Z,53.73
2019-02-27T00:49:58.408Z,53.41
2019-02-27T00:52:50.876Z,53.62
2019-02-27T00:55:39.410Z,53.50
2019-02-27T00:58:28.239Z,53.59
2019-02-27T01:01:17.027Z,53.82
2019-02-27T01:04:05.798Z,53.69
2019-02-27T01:06:54.596Z,54.03
2019-02-27T01:09:43.375Z,53.79
2019-02-27T01:12:32.195Z,53.96
2019-02-27T01:15:20.981Z,54.10
2019-02-27T01:18:09.769Z,54.08
2019-02-27T01:20:58.541Z,53.71
2019-02-27T01:23:47.343Z,53.75
2019-02-27T01:26:36.131Z,53.77
2019-02-27T01:29:24.897Z,53.96
2019-02-27T01:32:13.706Z,53.75
2019-02-27T01:35:02.487Z,53.50
2019-02-27T01:37:51.282Z,53.35
2019-02-27T01:40:40.045Z,53.20
2019-02-27T01:43:28.827Z,53.55
2019-02-27T01:46:17.608Z,53.54
2019-02-27T01:49:06.391Z,53.36
2019-02-27T01:51:55.174Z,53.37
2019-02-27T01:54:46.036Z,53.71
2019-02-27T01:57:27.645Z,53.81
2019-02-27T02:03:25.937Z,53.70
2019-02-27T02:06:15.000Z,53.41
2019-02-27T02:09:42.465Z,53.37
2019-02-27T02:12:31.237Z,53.69
2019-02-27T02:16:00.887Z,53.47
2019-02-27T02:19:10.161Z,53.67
2019-02-27T02:22:19.846Z,53.58
2019-02-27T02:25:47.301Z,53.93
2019-02-27T02:28:56.998Z,53.85
2019-02-27T02:32:24.539Z,53.71
2019-02-27T02:35:34.282Z,54.03
2019-02-27T02:38:43.952Z,53.81
2019-02-27T02:42:11.406Z,54.19
2019-02-27T02:45:38.885Z,54.26
2019-02-27T02:48:53.242Z,54.44
2019-02-27T02:52:05.602Z,54.70
2019-02-27T02:55:13.633Z,54.84
2019-02-27T02:57:51.033Z,54.79
2019-02-27T03:00:50.663Z,54.87
2019-02-27T03:03:49.365Z,54.93
2019-02-27T03:06:48.972Z,55.12
2019-02-27T03:09:31.881Z,55.34
2019-02-27T03:12:17.868Z,55.41
2019-02-27T03:15:12.192Z,55.47
2019-02-27T03:17:53.742Z,55.72
2019-02-27T03:20:39.531Z,55.97
2019-02-27T03:23:42.263Z,55.69
2019-02-27T03:26:40.261Z,55.91
2019-02-27T03:29:42.392Z,55.97
2019-02-27T03:32:41.392Z,56.15
2019-02-27T03:35:29.529Z,56.42
2019-02-27T03:38:23.756Z,56.60
2019-02-27T03:41:09.297Z,56.52
2019-02-27T03:43:55.151Z,56.68
2019-02-27T03:46:37.979Z,57.06
2019-02-27T03:49:27.551Z,57.21
2019-02-27T03:52:24.222Z,57.32
2019-02-27T03:55:25.328Z,57.51
2019-02-27T03:58:30.645Z,57.47
2019-02-27T04:01:08.606Z,57.40
2019-02-27T04:04:48.238Z,57.68
2019-02-27T04:07:57.959Z,57.55
2019-02-27T04:10:46.750Z,57.87
2019-02-27T04:13:35.499Z,57.87
2019-02-27T04:16:28.944Z,57.65
2019-02-27T04:18:55.424Z,57.87
2019-02-27T04:21:44.237Z,57.97
2019-02-27T04:24:13.687Z,58.19
2019-02-27T04:26:43.145Z,58.30
2019-02-27T04:29:12.586Z,58.31
2019-02-27T04:31:42.041Z,58.84
2019-02-27T04:34:11.524Z,59.02
2019-02-27T04:36:40.994Z,59.03
2019-02-27T04:39:10.471Z,58.75
2019-02-27T04:41:40.055Z,58.98
2019-02-27T04:44:09.498Z,59.05
2019-02-27T04:46:39.000Z,58.95
2019-02-27T04:49:08.449Z,58.83
2019-02-27T04:51:37.929Z,58.49
2019-02-27T04:54:07.568Z,58.33
2019-02-27T04:56:37.061Z,58.28
2019-02-27T04:59:06.544Z,58.32
2019-02-27T05:01:36.768Z,58.57
2019-02-27T05:04:07.050Z,58.71
2019-02-27T05:06:36.514Z,58.85
2019-02-27T05:09:07.634Z,58.94
2019-02-27T05:11:37.172Z,58.73
2019-02-27T05:14:06.652Z,58.68
2019-02-27T05:16:36.344Z,58.69
2019-02-27T05:19:05.815Z,58.71
2019-02-27T05:21:35.250Z,58.69
2019-02-27T05:24:05.181Z,58.87
2019-02-27T05:26:35.899Z,58.74
2019-02-27T05:29:05.661Z,58.85
2019-02-27T05:31:35.190Z,58.77
2019-02-27T05:34:04.727Z,58.85
2019-02-27T05:36:34.191Z,59.02
2019-02-27T05:39:04.141Z,59.08
2019-02-27T05:41:33.772Z,60.62
2019-02-27T05:44:04.760Z,59.05
2019-02-27T05:46:35.707Z,58.97
2019-02-27T05:49:05.497Z,59.06
2019-02-27T05:51:37.020Z,59.19
2019-02-27T05:54:07.672Z,59.38
2019-02-27T05:56:37.327Z,59.24
2019-02-27T05:59:06.806Z,59.65
2019-02-27T06:01:38.193Z,59.64
2019-02-27T06:04:07.447Z,59.69
2019-02-27T06:06:36.906Z,59.40
2019-02-27T06:09:10.353Z,59.54
2019-02-27T06:11:39.463Z,59.69
2019-02-27T06:14:08.953Z,60.18
2019-02-27T06:16:40.675Z,60.36
2019-02-27T06:19:09.691Z,60.60
2019-02-27T06:21:39.118Z,61.12
2019-02-27T06:24:12.593Z,61.06
2019-02-27T06:26:40.556Z,61.13
2019-02-27T06:29:10.332Z,61.00
2019-02-27T06:31:39.873Z,61.09
2019-02-27T06:34:09.386Z,60.86
2019-02-27T06:36:41.848Z,60.63
2019-02-27T06:39:10.168Z,60.54
2019-02-27T06:41:40.079Z,60.91
2019-02-27T06:44:09.523Z,60.81
2019-02-27T06:46:38.978Z,60.70
2019-02-27T06:49:08.792Z,60.64
2019-02-27T06:51:38.241Z,60.74
2019-02-27T06:54:07.765Z,60.57
2019-02-27T06:56:37.339Z,60.30
2019-02-27T06:59:06.847Z,60.20
2019-02-27T07:01:36.286Z,59.64
2019-02-27T07:04:08.308Z,59.10
2019-02-27T07:06:37.911Z,58.81
2019-02-27T07:09:11.429Z,58.18
2019-02-27T07:11:39.228Z,56.35
2019-02-27T07:14:09.896Z,55.30
2019-02-27T07:16:39.341Z,54.27
2019-02-27T07:19:09.597Z,53.39
2019-02-27T07:21:39.140Z,52.52
2019-02-27T07:24:08.642Z,51.30
2019-02-27T07:26:38.118Z,50.32
2019-02-27T07:29:07.605Z,48.90
2019-02-27T07:31:37.194Z,47.93
2019-02-27T07:34:06.699Z,47.08
2019-02-27T07:36:38.565Z,46.36
2019-02-27T07:39:08.689Z,45.87
2019-02-27T07:41:38.560Z,45.09
2019-02-27T07:44:07.995Z,44.52
2019-02-27T07:46:37.538Z,44.58
2019-02-27T07:49:07.417Z,44.48
2019-02-27T07:51:36.895Z,44.05
2019-02-27T07:54:06.375Z,43.42
2019-02-27T07:56:35.906Z,42.69
2019-02-27T07:59:05.530Z,42.37
2019-02-27T08:01:43.503Z,41.72
2019-02-27T08:04:06.867Z,40.76
2019-02-27T08:06:37.822Z,39.85
2019-02-27T08:09:09.019Z,38.88
2019-02-27T08:11:38.487Z,38.49
2019-02-27T08:14:08.000Z,37.90
2019-02-27T08:16:37.485Z,37.47
2019-02-27T08:19:08.898Z,36.52
2019-02-27T08:21:38.135Z,36.08
2019-02-27T08:24:08.595Z,35.48
2019-02-27T08:26:38.080Z,34.09
2019-02-27T08:29:07.609Z,33.94
2019-02-27T08:31:37.142Z,33.82
2019-02-27T08:34:06.603Z,33.61
2019-02-27T08:36:36.130Z,33.24
2019-02-27T08:39:06.831Z,32.38
2019-02-27T08:41:36.328Z,31.64
2019-02-27T08:44:05.803Z,31.52
2019-02-27T08:46:37.107Z,30.90
2019-02-27T08:49:06.502Z,31.33
2019-02-27T08:51:35.996Z,31.27
2019-02-27T08:54:05.468Z,31.10
2019-02-27T08:56:35.047Z,30.68
2019-02-27T08:59:05.866Z,30.74
2019-02-27T09:01:37.778Z,30.18
2019-02-27T09:04:11.451Z,30.04
2019-02-27T09:06:38.216Z,29.41
2019-02-27T09:09:08.416Z,28.81
2019-02-27T09:11:40.059Z,28.15
2019-02-27T09:14:09.182Z,27.97
2019-02-27T09:16:44.579Z,27.53
2019-02-27T09:21:43.590Z,27.01
2019-02-27T09:24:13.054Z,27.37
2019-02-27T09:26:42.531Z,26.11
2019-02-27T09:29:12.003Z,26.37
2019-02-27T09:31:50.493Z,25.72
2019-02-27T09:34:13.769Z,25.57
2019-02-27T09:36:43.876Z,26.18
2019-02-27T09:39:13.557Z,25.71
2019-02-27T09:41:46.119Z,25.85
2019-02-27T09:44:14.235Z,25.23
2019-02-27T09:46:43.724Z,25.24
2019-02-27T09:49:13.283Z,25.60
2019-02-27T09:51:42.831Z,25.19
2019-02-27T09:54:13.293Z,23.88
2019-02-27T09:56:44.540Z,23.82
2019-02-27T09:59:16.747Z,23.71
2019-02-27T10:01:46.209Z,23.72
2019-02-27T10:04:16.618Z,23.39
2019-02-27T10:06:47.670Z,22.73
2019-02-27T10:09:18.432Z,21.97
2019-02-27T10:11:47.937Z,22.06
2019-02-27T10:14:17.439Z,21.96
2019-02-27T10:16:46.922Z,21.77
2019-02-27T10:19:17.186Z,22.16
2019-02-27T10:21:47.568Z,22.06
2019-02-27T10:24:17.209Z,22.70
2019-02-27T10:26:46.703Z,22.22
2019-02-27T10:29:16.181Z,22.12
2019-02-27T10:31:45.663Z,21.36
2019-02-27T10:34:17.601Z,20.69
2019-02-27T10:36:47.664Z,21.19
2019-02-27T10:39:17.652Z,21.50
2019-02-27T10:41:49.906Z,21.58
2019-02-27T10:44:18.365Z,21.29
2019-02-27T10:46:47.849Z,21.12
2019-02-27T10:49:21.448Z,20.98
2019-02-27T10:51:49.382Z,20.31
2019-02-27T10:54:18.851Z,20.74
2019-02-27T10:56:48.368Z,20.26
2019-02-27T10:59:19.640Z,21.00
2019-02-27T11:01:49.104Z,21.48
2019-02-27T11:04:18.569Z,21.15
2019-02-27T11:06:48.040Z,21.45
2019-02-27T11:09:23.936Z,22.47
2019-02-27T11:11:53.897Z,21.35
2019-02-27T11:14:25.039Z,20.00
2019-02-27T11:16:54.529Z,20.08
2019-02-27T11:19:24.077Z,20.52
2019-02-27T11:21:53.638Z,20.80
2019-02-27T11:24:24.706Z,20.44
2019-02-27T11:26:54.349Z,21.30
2019-02-27T11:29:24.426Z,21.18
2019-02-27T11:31:54.046Z,21.47
2019-02-27T11:34:23.704Z,20.56
2019-02-27T11:36:53.195Z,20.87
2019-02-27T11:39:22.646Z,20.39
2019-02-27T11:41:52.146Z,19.88
2019-02-27T11:44:21.636Z,20.19
2019-02-27T11:46:58.732Z,20.59
2019-02-27T11:49:22.359Z,19.34
2019-02-27T11:51:57.789Z,19.27
2019-02-27T11:54:27.269Z,19.48
2019-02-27T11:56:57.062Z,18.77
2019-02-27T11:59:26.622Z,19.37
2019-02-27T12:01:56.275Z,19.38
2019-02-27T12:04:25.727Z,20.01
2019-02-27T12:06:55.211Z,19.72
2019-02-27T12:09:24.754Z,20.46
2019-02-27T12:11:54.297Z,19.94
2019-02-27T12:14:23.761Z,20.11
2019-02-27T12:16:53.250Z,19.63
2019-02-27T12:19:22.801Z,20.45
2019-02-27T12:21:52.293Z,21.45
2019-02-27T12:24:21.775Z,21.59
2019-02-27T12:26:51.237Z,21.42
2019-02-27T12:29:20.832Z,21.03
2019-02-27T12:31:50.337Z,20.85
2019-02-27T12:34:19.910Z,21.11
2019-02-27T12:36:49.917Z,21.43
2019-02-27T12:39:20.594Z,21.88
2019-02-27T12:41:50.093Z,22.09
2019-02-27T12:44:19.549Z,21.54
2019-02-27T12:46:49.040Z,21.60
2019-02-27T12:49:20.025Z,20.86
2019-02-27T12:51:49.775Z,21.48
2019-02-27T12:54:19.231Z,20.62
2019-02-27T12:56:48.762Z,20.82
2019-02-27T12:59:18.218Z,21.15
2019-02-27T13:01:51.681Z,21.21
2019-02-27T13:04:20.086Z,21.81
2019-02-27T13:06:49.639Z,21.36
2019-02-27T13:09:20.065Z,21.14
2019-02-27T13:11:49.587Z,21.81
2019-02-27T13:14:19.076Z,21.29
2019-02-27T13:16:49.493Z,21.06
2019-02-27T13:19:19.831Z,21.43
2019-02-27T13:21:49.333Z,21.62
2019-02-27T13:24:18.833Z,20.63
2019-02-27T13:26:48.357Z,20.39
2019-02-27T13:29:20.591Z,22.05
2019-02-27T13:31:51.456Z,21.69
2019-02-27T13:34:21.215Z,22.49
2019-02-27T13:36:50.714Z,21.97
2019-02-27T13:39:20.185Z,21.77
2019-02-27T13:41:50.724Z,23.24
2019-02-27T13:44:20.213Z,22.91
2019-02-27T13:46:49.718Z,23.43
2019-02-27T13:49:19.227Z,23.17
2019-02-27T13:51:48.704Z,23.40
2019-02-27T13:54:18.178Z,23.17
2019-02-27T13:56:47.675Z,23.38
2019-02-27T13:59:17.142Z,22.75
2019-02-27T14:01:46.648Z,23.37
2019-02-27T14:04:16.186Z,23.44
2019-02-27T14:06:47.482Z,22.67
2019-02-27T14:09:18.962Z,22.97
2019-02-27T14:11:48.334Z,22.70
2019-02-27T14:14:18.622Z,30.01
2019-02-27T14:16:49.321Z,27.99
2019-02-27T14:19:21.363Z,28.37
2019-02-27T14:21:50.246Z,23.80
2019-02-27T14:24:20.661Z,22.84
2019-02-27T14:26:50.778Z,23.13
2019-02-27T14:29:20.237Z,24.10
2019-02-27T14:31:49.792Z,26.58
2019-02-27T14:34:19.224Z,24.09
2019-02-27T14:36:49.082Z,23.31
2019-02-27T14:39:18.791Z,27.80
2019-02-27T14:41:49.263Z,26.20
2019-02-27T14:44:19.493Z,24.97
2019-02-27T14:46:49.088Z,25.09
2019-02-27T14:49:18.642Z,25.13
2019-02-27T14:51:48.147Z,24.97
2019-02-27T14:57:25.234Z,24.00
2019-02-27T15:00:40.013Z,23.87
2019-02-27T15:03:29.248Z,24.09
2019-02-27T15:06:19.270Z,24.76
2019-02-27T15:12:35.396Z,24.80
2019-02-27T15:15:45.096Z,25.13
2019-02-27T15:18:33.929Z,25.57
2019-02-27T15:21:24.452Z,26.55
2019-02-27T15:24:13.221Z,27.66
2019-02-27T15:26:54.830Z,26.71
2019-02-27T15:29:43.588Z,28.04
2019-02-27T15:32:32.391Z,27.79
2019-02-27T15:35:22.282Z,27.79
2019-02-27T15:38:12.428Z,29.06
2019-02-27T15:41:03.333Z,28.67
2019-02-27T15:43:59.976Z,28.92
2019-02-27T15:46:43.307Z,29.41
2019-02-27T15:49:32.114Z,29.88
2019-02-27T15:52:20.918Z,29.42
2019-02-27T15:55:34.249Z,30.21
2019-02-27T15:58:21.170Z,29.80
2019-02-27T16:01:09.961Z,30.91
2019-02-27T16:03:58.727Z,29.71
2019-02-27T16:06:47.559Z,29.78
2019-02-27T16:09:36.291Z,30.44
2019-02-27T16:12:25.959Z,30.49
2019-02-27T16:15:36.502Z,30.77
2019-02-27T16:18:25.316Z,30.79
2019-02-27T16:21:14.129Z,31.52
2019-02-27T16:24:02.910Z,31.76
2019-02-27T16:26:44.205Z,33.19
2019-02-27T16:29:32.972Z,32.74
2019-02-27T16:32:21.778Z,33.68
2019-02-27T16:35:29.579Z,33.50
2019-02-27T16:38:18.376Z,33.85
2019-02-27T16:41:07.159Z,34.84
2019-02-27T16:43:55.936Z,34.74
2019-02-27T16:46:44.895Z,34.88
2019-02-27T16:49:35.238Z,35.61
2019-02-27T16:52:24.041Z,35.77
2019-02-27T16:55:36.900Z,36.92
2019-02-27T16:58:24.215Z,36.67
2019-02-27T17:01:13.087Z,37.12
2019-02-27T17:04:01.958Z,37.33
2019-02-27T17:06:52.187Z,37.60
2019-02-27T17:09:43.881Z,38.02
2019-02-27T17:12:31.790Z,38.20
2019-02-27T17:15:20.544Z,38.56
2019-02-27T17:18:09.346Z,38.91
2019-02-27T17:20:58.119Z,39.43
2019-02-27T17:23:46.949Z,39.13
2019-02-27T17:26:39.065Z,39.47
2019-02-27T17:29:06.899Z,40.19
2019-02-27T17:31:56.486Z,40.50
2019-02-27T17:34:47.692Z,40.79
2019-02-27T17:37:37.399Z,41.08
2019-02-27T17:40:29.076Z,40.94
2019-02-27T17:43:17.761Z,41.15
2019-02-27T17:46:06.570Z,41.78
2019-02-27T17:48:55.850Z,41.89
2019-02-27T17:51:25.485Z,41.90
2019-02-27T17:53:55.065Z,41.91
2019-02-27T17:56:26.119Z,42.12
2019-02-27T18:02:09.650Z,42.96
2019-02-27T18:04:58.441Z,42.62
2019-02-27T18:07:47.270Z,42.92
2019-02-27T18:10:37.569Z,43.54
2019-02-27T18:13:26.598Z,44.12
2019-02-27T18:16:15.378Z,43.93
2019-02-27T18:19:04.203Z,44.53
2019-02-27T18:21:53.020Z,44.83
2019-02-27T18:24:34.990Z,45.12
2019-02-27T18:27:25.403Z,45.24
2019-02-27T18:29:55.629Z,45.05
2019-02-27T18:32:25.130Z,45.21
2019-02-27T18:34:55.250Z,45.21
2019-02-27T18:37:24.879Z,45.27
2019-02-27T18:39:54.315Z,45.87
2019-02-27T18:42:23.744Z,45.87
2019-02-27T18:44:53.222Z,45.78
2019-02-27T18:47:22.644Z,45.84
2019-02-27T18:49:52.948Z,46.15
2019-02-27T18:52:22.534Z,46.39
2019-02-27T18:54:54.739Z,47.00
2019-02-27T18:57:23.160Z,47.10
2019-02-27T18:59:52.656Z,47.31
2019-02-27T19:02:22.128Z,47.59
2019-02-27T19:04:51.577Z,47.62
2019-02-27T19:07:21.096Z,47.77
2019-02-27T19:09:50.619Z,47.84
2019-02-27T19:12:25.001Z,47.75
2019-02-27T19:14:51.252Z,47.99
2019-02-27T19:17:20.767Z,47.89
2019-02-27T19:19:50.203Z,47.65
2019-02-27T19:22:19.913Z,47.55
2019-02-27T19:24:50.336Z,47.64
2019-02-27T19:27:19.961Z,48.22
2019-02-27T19:29:49.415Z,48.38
2019-02-27T19:32:18.876Z,48.51
2019-02-27T19:34:48.319Z,48.61
2019-02-27T19:37:17.853Z,49.46
2019-02-27T19:39:47.285Z,49.29
2019-02-27T19:42:16.924Z,49.37
2019-02-27T19:44:46.360Z,49.35
2019-02-27T19:47:18.467Z,49.40
2019-02-27T19:49:46.977Z,49.34
2019-02-27T19:52:16.503Z,49.45
2019-02-27T19:54:45.944Z,48.74
2019-02-27T19:57:15.400Z,48.71
2019-02-27T19:59:44.838Z,49.26
2019-02-27T20:02:14.308Z,49.50
2019-02-27T20:04:46.016Z,49.86
2019-02-27T20:07:15.985Z,49.85
2019-02-27T20:09:45.439Z,49.70
2019-02-27T20:12:15.804Z,48.92
2019-02-27T20:14:46.065Z,48.38
2019-02-27T20:17:15.536Z,48.29
2019-02-27T20:19:44.973Z,47.94
2019-02-27T20:22:15.428Z,47.82
2019-02-27T20:24:46.530Z,47.91
2019-02-27T20:27:15.992Z,47.84
2019-02-27T20:29:45.447Z,48.08
2019-02-27T20:32:14.994Z,48.14
2019-02-27T20:34:45.912Z,47.20
2019-02-27T20:37:15.749Z,46.67
2019-02-27T20:39:45.245Z,46.18
2019-02-27T20:42:14.771Z,46.73
2019-02-27T20:44:44.208Z,45.97
2019-02-27T20:47:13.744Z,45.76
2019-02-27T20:49:44.743Z,45.80
2019-02-27T20:52:15.039Z,45.50
2019-02-27T20:54:45.070Z,45.66
2019-02-27T20:57:14.867Z,45.55
2019-02-27T20:59:44.309Z,45.35
2019-02-27T21:02:13.742Z,45.83
2019-02-27T21:04:43.215Z,46.12
2019-02-27T21:07:21.880Z,46.61
2019-02-27T21:09:45.143Z,46.75
2019-02-27T21:12:15.112Z,46.97
2019-02-27T21:14:44.680Z,47.49
2019-02-27T21:17:16.526Z,47.65
2019-02-27T21:19:45.305Z,47.85
2019-02-27T21:22:14.741Z,48.12
2019-02-27T21:24:44.221Z,48.28
2019-02-27T21:27:13.657Z,48.51
2019-02-27T21:29:43.551Z,48.24
2019-02-27T21:32:14.033Z,48.25
2019-02-27T21:34:43.501Z,48.34
2019-02-27T21:37:12.974Z,48.67
2019-02-27T21:39:42.545Z,48.46
2019-02-27T21:42:18.605Z,48.58
2019-02-27T21:44:45.212Z,48.58
2019-02-27T21:47:14.649Z,48.05
2019-02-27T21:49:44.101Z,48.31
2019-02-27T21:52:13.533Z,48.43
2019-02-27T21:54:42.978Z,48.11
2019-02-27T21:57:12.412Z,48.11
2019-02-27T21:59:41.863Z,48.08
2019-02-27T22:02:11.355Z,48.20
2019-02-27T22:04:41.163Z,47.85
2019-02-27T22:07:11.965Z,47.75
2019-02-27T22:09:44.614Z,47.64
2019-02-27T22:12:12.613Z,47.65
2019-02-27T22:14:42.056Z,47.56
2019-02-27T22:17:11.495Z,47.70
2019-02-27T22:19:40.941Z,47.31
2019-02-27T22:22:10.377Z,47.47
2019-02-27T22:24:39.829Z,47.57
2019-02-27T22:27:12.828Z,47.42
2019-02-27T22:29:40.435Z,47.17
2019-02-27T22:32:12.073Z,47.00
2019-02-27T22:34:41.054Z,47.19
2019-02-27T22:37:10.495Z,47.24
2019-02-27T22:39:39.942Z,47.40
2019-02-27T22:42:12.057Z,47.48
2019-02-27T22:44:40.549Z,47.81
2019-02-27T22:47:09.984Z,47.71
2019-02-27T22:49:39.433Z,47.71
2019-02-27T22:52:08.882Z,47.61
2019-02-27T22:54:38.322Z,47.99
2019-02-27T22:57:07.748Z,48.02
2019-02-27T22:59:38.062Z,48.19
2019-02-27T23:02:07.558Z,48.00
2019-02-27T23:04:36.997Z,48.07
2019-02-27T23:07:06.434Z,48.09
2019-02-27T23:09:36.895Z,47.84
2019-02-27T23:12:08.596Z,48.27
2019-02-27T23:14:38.039Z,47.97
2019-02-27T23:17:07.471Z,48.12
2019-02-27T23:19:36.896Z,48.41
2019-02-27T23:22:06.489Z,48.31
2019-02-27T23:24:35.946Z,48.17
2019-02-27T23:27:05.382Z,48.27
2019-02-27T23:29:39.708Z,48.51
2019-02-27T23:32:05.969Z,48.32
2019-02-27T23:34:35.433Z,48.81
2019-02-27T23:37:04.917Z,48.28
2019-02-27T23:39:34.385Z,48.34
2019-02-27T23:42:03.801Z,48.65
2019-02-27T23:44:33.231Z,48.65
2019-02-27T23:47:02.665Z,48.87
2019-02-27T23:49:32.099Z,48.70
2019-02-27T23:52:01.529Z,49.10
2019-02-27T23:54:35.468Z,49.08
2019-02-27T23:57:02.119Z,49.12
2019-02-27T23:59:33.008Z,49.10
